sensor_id;sensor_type;location;lat;lon;timestamp;pressure;altitude;pressure_sealevel;temperature;humidity
3254;BME280;1639;42.804;23.342;2023-08-07T00:01:41;71863.88;;;-148.52;100.00
3254;BME280;1639;42.804;23.342;2023-08-07T00:04:07;71870.09;;;-148.52;100.00
3254;BME280;1639;42.804;23.342;2023-08-07T00:06:32;71884.56;;;-148.52;100.00
3254;BME280;1639;42.804;23.342;2023-08-07T00:08:57;71896.97;;;-148.52;100.00
3254;BME280;1639;42.804;23.342;2023-08-07T00:11:23;71901.09;;;-148.52;100.00
3254;BME280;1639;42.804;23.342;2023-08-07T00:13:48;71917.63;;;-148.52;100.00
3254;BME280;1639;42.804;23.342;2023-08-07T00:16:14;71934.19;;;-148.52;100.00
3254;BME280;1639;42.804;23.342;2023-08-07T00:18:39;71940.38;;;-148.52;100.00
3254;BME280;1639;42.804;23.342;2023-08-07T00:21:04;71938.31;;;-148.52;100.00
3254;BME280;1639;42.804;23.342;2023-08-07T00:23:30;71938.31;;;-148.52;100.00
3254;BME280;1639;42.804;23.342;2023-08-07T00:25:55;71948.66;;;-148.52;100.00
3254;BME280;1639;42.804;23.342;2023-08-07T00:28:20;71950.72;;;-148.52;100.00
3254;BME280;1639;42.804;23.342;2023-08-07T00:30:46;71959.00;;;-148.52;100.00
3254;BME280;1639;42.804;23.342;2023-08-07T00:33:11;71959.00;;;-148.52;100.00
3254;BME280;1639;42.804;23.342;2023-08-07T00:35:37;71969.34;;;-148.52;100.00
3254;BME280;1639;42.804;23.342;2023-08-07T00:38:02;71967.25;;;-148.52;100.00
3254;BME280;1639;42.804;23.342;2023-08-07T00:40:28;71967.25;;;-148.52;100.00
3254;BME280;1639;42.804;23.342;2023-08-07T00:42:53;71967.25;;;-148.52;100.00
3254;BME280;1639;42.804;23.342;2023-08-07T00:45:19;71973.47;;;-148.52;100.00
3254;BME280;1639;42.804;23.342;2023-08-07T00:47:46;71987.94;;;-148.52;100.00
3254;BME280;1639;42.804;23.342;2023-08-07T00:50:12;72004.47;;;-148.52;100.00
3254;BME280;1639;42.804;23.342;2023-08-07T00:52:37;72008.63;;;-148.52;100.00
3254;BME280;1639;42.804;23.342;2023-08-07T00:55:03;72002.41;;;-148.52;100.00
3254;BME280;1639;42.804;23.342;2023-08-07T00:57:29;72004.47;;;-148.52;100.00
3254;BME280;1639;42.804;23.342;2023-08-07T00:59:55;71994.13;;;-148.52;100.00
3254;BME280;1639;42.804;23.342;2023-08-07T01:02:21;71992.06;;;-148.52;100.00
3254;BME280;1639;42.804;23.342;2023-08-07T01:04:46;71987.94;;;-148.52;100.00
3254;BME280;1639;42.804;23.342;2023-08-07T01:07:12;71992.06;;;-148.52;100.00
3254;BME280;1639;42.804;23.342;2023-08-07T01:09:37;71996.22;;;-148.52;100.00
3254;BME280;1639;42.804;23.342;2023-08-07T01:14:41;72010.69;;;-148.52;100.00
3254;BME280;1639;42.804;23.342;2023-08-07T01:17:15;71998.28;;;-148.52;100.00
3254;BME280;1639;42.804;23.342;2023-08-07T01:19:41;72008.63;;;-148.52;100.00
3254;BME280;1639;42.804;23.342;2023-08-07T01:22:10;72010.69;;;-148.52;100.00
3254;BME280;1639;42.804;23.342;2023-08-07T01:24:36;72010.69;;;-148.52;100.00
3254;BME280;1639;42.804;23.342;2023-08-07T01:32:26;71998.28;;;-148.52;100.00
3254;BME280;1639;42.804;23.342;2023-08-07T01:34:54;72004.47;;;-148.52;100.00
3254;BME280;1639;42.804;23.342;2023-08-07T01:37:21;71998.28;;;-148.52;100.00
3254;BME280;1639;42.804;23.342;2023-08-07T01:39:48;71996.22;;;-148.52;100.00
3254;BME280;1639;42.804;23.342;2023-08-07T01:42:15;71996.22;;;-148.52;100.00
3254;BME280;1639;42.804;23.342;2023-08-07T01:44:40;71990.00;;;-148.52;100.00
3254;BME280;1639;42.804;23.342;2023-08-07T01:47:06;71996.22;;;-148.52;100.00
3254;BME280;1639;42.804;23.342;2023-08-07T01:49:32;72004.47;;;-148.52;100.00
3254;BME280;1639;42.804;23.342;2023-08-07T01:51:57;72021.03;;;-148.52;100.00
3254;BME280;1639;42.804;23.342;2023-08-07T01:54:23;72027.22;;;-148.52;100.00
3254;BME280;1639;42.804;23.342;2023-08-07T01:56:48;72031.38;;;-148.52;100.00
3254;BME280;1639;42.804;23.342;2023-08-07T01:59:13;72033.44;;;-148.52;100.00
3254;BME280;1639;42.804;23.342;2023-08-07T02:01:39;72037.56;;;-148.52;100.00
3254;BME280;1639;42.804;23.342;2023-08-07T02:04:04;72039.63;;;-148.52;100.00
3254;BME280;1639;42.804;23.342;2023-08-07T02:06:31;72049.97;;;-148.52;100.00
3254;BME280;1639;42.804;23.342;2023-08-07T02:08:56;72058.25;;;-148.52;100.00
3254;BME280;1639;42.804;23.342;2023-08-07T02:11:22;72070.66;;;-148.52;100.00
3254;BME280;1639;42.804;23.342;2023-08-07T02:13:47;72078.91;;;-148.52;100.00
3254;BME280;1639;42.804;23.342;2023-08-07T02:16:13;72089.25;;;-148.52;100.00
3254;BME280;1639;42.804;23.342;2023-08-07T02:18:38;72107.88;;;-148.52;100.00
3254;BME280;1639;42.804;23.342;2023-08-07T02:21:04;72124.41;;;-148.52;100.00
3254;BME280;1639;42.804;23.342;2023-08-07T02:23:29;72128.53;;;-148.52;100.00
3254;BME280;1639;42.804;23.342;2023-08-07T02:25:54;72140.94;;;-148.52;100.00
3254;BME280;1639;42.804;23.342;2023-08-07T02:28:20;72120.28;;;-148.52;100.00
3254;BME280;1639;42.804;23.342;2023-08-07T02:30:46;72109.94;;;-148.52;100.00
3254;BME280;1639;42.804;23.342;2023-08-07T02:33:14;72093.41;;;-148.52;100.00
3254;BME280;1639;42.804;23.342;2023-08-07T02:35:39;72087.19;;;-148.52;100.00
3254;BME280;1639;42.804;23.342;2023-08-07T02:38:05;72074.78;;;-148.52;100.00
3254;BME280;1639;42.804;23.342;2023-08-07T02:40:30;72076.84;;;-148.52;100.00
3254;BME280;1639;42.804;23.342;2023-08-07T02:42:55;72070.66;;;-148.52;100.00
3254;BME280;1639;42.804;23.342;2023-08-07T02:45:21;72083.06;;;-148.52;100.00
3254;BME280;1639;42.804;23.342;2023-08-07T02:47:46;72091.31;;;-148.52;100.00
3254;BME280;1639;42.804;23.342;2023-08-07T02:50:12;72128.53;;;-148.52;100.00
3254;BME280;1639;42.804;23.342;2023-08-07T02:52:37;72176.09;;;-148.52;100.00
3254;BME280;1639;42.804;23.342;2023-08-07T02:55:02;72169.91;;;-148.52;100.00
3254;BME280;1639;42.804;23.342;2023-08-07T02:57:28;72169.91;;;-148.52;100.00
3254;BME280;1639;42.804;23.342;2023-08-07T02:59:54;72151.28;;;-148.52;100.00
3254;BME280;1639;42.804;23.342;2023-08-07T03:02:19;72149.22;;;-148.52;100.00
3254;BME280;1639;42.804;23.342;2023-08-07T03:04:44;72140.94;;;-148.52;100.00
3254;BME280;1639;42.804;23.342;2023-08-07T03:07:10;72128.53;;;-148.52;100.00
3254;BME280;1639;42.804;23.342;2023-08-07T03:09:35;72132.69;;;-148.52;100.00
3254;BME280;1639;42.804;23.342;2023-08-07T03:12:01;72136.81;;;-148.52;100.00
3254;BME280;1639;42.804;23.342;2023-08-07T03:14:28;72134.75;;;-148.52;100.00
3254;BME280;1639;42.804;23.342;2023-08-07T03:16:54;72126.47;;;-148.52;100.00
3254;BME280;1639;42.804;23.342;2023-08-07T03:19:19;72128.53;;;-148.52;100.00
3254;BME280;1639;42.804;23.342;2023-08-07T03:21:46;72134.75;;;-148.52;100.00
3254;BME280;1639;42.804;23.342;2023-08-07T03:24:12;72128.53;;;-148.52;100.00
3254;BME280;1639;42.804;23.342;2023-08-07T03:26:37;72126.47;;;-148.52;100.00
3254;BME280;1639;42.804;23.342;2023-08-07T03:29:02;72126.47;;;-148.52;100.00
3254;BME280;1639;42.804;23.342;2023-08-07T03:31:28;72132.69;;;-148.52;100.00
3254;BME280;1639;42.804;23.342;2023-08-07T03:33:53;72138.88;;;-148.52;100.00
3254;BME280;1639;42.804;23.342;2023-08-07T03:36:19;72140.94;;;-148.52;100.00
3254;BME280;1639;42.804;23.342;2023-08-07T03:38:44;72136.81;;;-148.52;100.00
3254;BME280;1639;42.804;23.342;2023-08-07T03:41:09;72147.16;;;-148.52;100.00
3254;BME280;1639;42.804;23.342;2023-08-07T03:43:35;72155.44;;;-148.52;100.00
3254;BME280;1639;42.804;23.342;2023-08-07T03:46:00;72169.91;;;-148.52;100.00
3254;BME280;1639;42.804;23.342;2023-08-07T03:48:26;72176.09;;;-148.52;100.00
3254;BME280;1639;42.804;23.342;2023-08-07T03:50:51;72186.44;;;-148.52;100.00
3254;BME280;1639;42.804;23.342;2023-08-07T03:53:17;72198.84;;;-148.52;100.00
3254;BME280;1639;42.804;23.342;2023-08-07T03:55:42;72205.06;;;-148.52;100.00
3254;BME280;1639;42.804;23.342;2023-08-07T03:58:10;72209.19;;;-148.52;100.00
3254;BME280;1639;42.804;23.342;2023-08-07T04:00:35;72211.25;;;-148.52;100.00
3254;BME280;1639;42.804;23.342;2023-08-07T04:03:01;72207.13;;;-148.52;100.00
3254;BME280;1639;42.804;23.342;2023-08-07T04:05:26;72207.13;;;-148.52;100.00
3254;BME280;1639;42.804;23.342;2023-08-07T04:07:51;72215.38;;;-148.52;100.00
3254;BME280;1639;42.804;23.342;2023-08-07T04:10:17;72207.13;;;-148.52;100.00
3254;BME280;1639;42.804;23.342;2023-08-07T04:12:42;72203.00;;;-148.52;100.00
3254;BME280;1639;42.804;23.342;2023-08-07T04:15:08;72196.78;;;-148.52;100.00
3254;BME280;1639;42.804;23.342;2023-08-07T04:17:35;72196.78;;;-148.52;100.00
3254;BME280;1639;42.804;23.342;2023-08-07T04:20:00;72194.72;;;-148.52;100.00
3254;BME280;1639;42.804;23.342;2023-08-07T04:22:26;72190.56;;;-148.52;100.00
3254;BME280;1639;42.804;23.342;2023-08-07T04:24:51;72186.44;;;-148.52;100.00
3254;BME280;1639;42.804;23.342;2023-08-07T04:27:16;72176.09;;;-148.52;100.00
3254;BME280;1639;42.804;23.342;2023-08-07T04:29:42;72169.91;;;-148.52;100.00
3254;BME280;1639;42.804;23.342;2023-08-07T04:32:07;72167.84;;;-148.52;100.00
3254;BME280;1639;42.804;23.342;2023-08-07T04:34:33;72157.50;;;-148.52;100.00
3254;BME280;1639;42.804;23.342;2023-08-07T04:36:58;72147.16;;;-148.52;100.00
3254;BME280;1639;42.804;23.342;2023-08-07T04:39:23;72145.09;;;-148.52;100.00
3254;BME280;1639;42.804;23.342;2023-08-07T04:41:49;72138.88;;;-148.52;100.00
3254;BME280;1639;42.804;23.342;2023-08-07T04:44:17;72130.63;;;-148.52;100.00
3254;BME280;1639;42.804;23.342;2023-08-07T04:46:42;72120.28;;;-148.52;100.00
3254;BME280;1639;42.804;23.342;2023-08-07T04:49:08;72120.28;;;-148.52;100.00
3254;BME280;1639;42.804;23.342;2023-08-07T04:51:33;72114.06;;;-148.52;100.00
3254;BME280;1639;42.804;23.342;2023-08-07T04:53:58;72099.59;;;-148.52;100.00
3254;BME280;1639;42.804;23.342;2023-08-07T04:56:24;72091.31;;;-148.52;100.00
3254;BME280;1639;42.804;23.342;2023-08-07T04:58:49;72078.91;;;-148.52;100.00
3254;BME280;1639;42.804;23.342;2023-08-07T05:01:15;72078.91;;;-148.52;100.00
3254;BME280;1639;42.804;23.342;2023-08-07T05:03:40;72078.91;;;-148.52;100.00
3254;BME280;1639;42.804;23.342;2023-08-07T05:06:06;72062.38;;;-148.52;100.00
3254;BME280;1639;42.804;23.342;2023-08-07T05:08:31;72058.25;;;-148.52;100.00
3254;BME280;1639;42.804;23.342;2023-08-07T05:10:57;72054.09;;;-148.52;100.00
3254;BME280;1639;42.804;23.342;2023-08-07T05:13:22;72033.44;;;-148.52;100.00
3254;BME280;1639;42.804;23.342;2023-08-07T05:15:48;72033.44;;;-148.52;100.00
3254;BME280;1639;42.804;23.342;2023-08-07T05:18:14;72029.28;;;-148.52;100.00
3254;BME280;1639;42.804;23.342;2023-08-07T05:20:39;72025.16;;;-148.52;100.00
3254;BME280;1639;42.804;23.342;2023-08-07T05:23:05;72025.16;;;-148.52;100.00
3254;BME280;1639;42.804;23.342;2023-08-07T05:25:30;72029.28;;;-148.52;100.00
3254;BME280;1639;42.804;23.342;2023-08-07T05:27:56;72018.94;;;-148.52;100.00
3254;BME280;1639;42.804;23.342;2023-08-07T05:30:21;72018.94;;;-148.52;100.00
3254;BME280;1639;42.804;23.342;2023-08-07T05:32:47;72004.47;;;-148.52;100.00
3254;BME280;1639;42.804;23.342;2023-08-07T05:35:12;71996.22;;;-148.52;100.00
3254;BME280;1639;42.804;23.342;2023-08-07T05:37:38;71990.00;;;-148.52;99.98
3254;BME280;1639;42.804;23.342;2023-08-07T05:40:04;71987.94;;;-148.52;100.00
3254;BME280;1639;42.804;23.342;2023-08-07T05:42:30;71979.66;;;-148.52;100.00
3254;BME280;1639;42.804;23.342;2023-08-07T05:44:55;71985.88;;;-148.52;100.00
3254;BME280;1639;42.804;23.342;2023-08-07T05:47:20;71992.06;;;-148.52;98.21
3254;BME280;1639;42.804;23.342;2023-08-07T05:49:46;71983.81;;;-148.52;97.67
3254;BME280;1639;42.804;23.342;2023-08-07T05:52:11;71981.75;;;-148.52;98.32
3254;BME280;1639;42.804;23.342;2023-08-07T05:54:36;71990.00;;;-148.52;93.16
3254;BME280;1639;42.804;23.342;2023-08-07T05:57:02;71979.66;;;-148.52;94.12
3254;BME280;1639;42.804;23.342;2023-08-07T05:59:28;71971.41;;;-148.52;93.67
3254;BME280;1639;42.804;23.342;2023-08-07T06:01:54;71967.25;;;-148.52;87.50
3254;BME280;1639;42.804;23.342;2023-08-07T06:04:20;71965.19;;;-148.52;88.10
3254;BME280;1639;42.804;23.342;2023-08-07T06:06:46;71954.84;;;-148.52;86.93
3254;BME280;1639;42.804;23.342;2023-08-07T06:09:12;71954.84;;;-148.52;84.01
3254;BME280;1639;42.804;23.342;2023-08-07T06:11:37;71940.38;;;-148.52;83.21
3254;BME280;1639;42.804;23.342;2023-08-07T06:14:03;71934.19;;;-148.52;76.78
3254;BME280;1639;42.804;23.342;2023-08-07T06:16:28;71917.63;;;-148.52;75.86
3254;BME280;1639;42.804;23.342;2023-08-07T06:18:53;71911.44;;;-148.52;75.93
3254;BME280;1639;42.804;23.342;2023-08-07T06:21:19;71901.09;;;-148.52;71.79
3254;BME280;1639;42.804;23.342;2023-08-07T06:23:45;71888.69;;;-148.52;71.43
3254;BME280;1639;42.804;23.342;2023-08-07T06:26:12;71870.09;;;-148.52;70.94
3254;BME280;1639;42.804;23.342;2023-08-07T06:28:37;71855.59;;;-148.52;66.85
3254;BME280;1639;42.804;23.342;2023-08-07T06:31:04;71843.19;;;-148.52;65.61
3254;BME280;1639;42.804;23.342;2023-08-07T06:33:30;71832.88;;;-148.52;66.67
3254;BME280;1639;42.804;23.342;2023-08-07T06:35:57;71822.53;;;-148.52;65.48
3254;BME280;1639;42.804;23.342;2023-08-07T06:38:22;71793.59;;;-148.52;65.10
3254;BME280;1639;42.804;23.342;2023-08-07T06:40:48;71791.50;;;-148.52;62.82
3254;BME280;1639;42.804;23.342;2023-08-07T06:43:13;71766.69;;;-148.52;63.73
3254;BME280;1639;42.804;23.342;2023-08-07T06:45:38;71764.63;;;-148.52;63.00
3254;BME280;1639;42.804;23.342;2023-08-07T06:48:04;71758.44;;;-148.52;62.65
3254;BME280;1639;42.804;23.342;2023-08-07T06:50:29;71756.38;;;-148.52;60.45
3254;BME280;1639;42.804;23.342;2023-08-07T06:52:54;71731.56;;;-148.52;58.05
3254;BME280;1639;42.804;23.342;2023-08-07T06:55:20;71719.16;;;-148.52;56.45
3254;BME280;1639;42.804;23.342;2023-08-07T06:57:46;71690.19;;;-148.52;55.36
3254;BME280;1639;42.804;23.342;2023-08-07T07:00:11;71665.38;;;-148.52;55.02
3254;BME280;1639;42.804;23.342;2023-08-07T07:02:37;71644.72;;;-148.52;56.47
3254;BME280;1639;42.804;23.342;2023-08-07T07:05:02;71624.03;;;-148.52;53.59
3254;BME280;1639;42.804;23.342;2023-08-07T07:07:30;71630.25;;;-148.52;53.60
3254;BME280;1639;42.804;23.342;2023-08-07T07:09:55;71595.09;;;-148.52;53.46
3254;BME280;1639;42.804;23.342;2023-08-07T07:12:23;71580.63;;;-148.52;53.04
3254;BME280;1639;42.804;23.342;2023-08-07T07:14:48;71551.69;;;-148.52;53.55
3254;BME280;1639;42.804;23.342;2023-08-07T07:17:14;71528.94;;;-148.52;51.94
3254;BME280;1639;42.804;23.342;2023-08-07T07:19:39;71524.81;;;-148.52;50.90
3254;BME280;1639;42.804;23.342;2023-08-07T07:22:05;71512.41;;;-148.52;51.10
3254;BME280;1639;42.804;23.342;2023-08-07T07:24:30;71468.97;;;-148.52;51.50
3254;BME280;1639;42.804;23.342;2023-08-07T07:26:55;71423.50;;;-148.52;50.68
3254;BME280;1639;42.804;23.342;2023-08-07T07:29:21;71396.63;;;-148.52;49.12
3254;BME280;1639;42.804;23.342;2023-08-07T07:31:46;71382.16;;;-148.52;48.13
3254;BME280;1639;42.804;23.342;2023-08-07T07:34:12;71344.94;;;-148.52;48.04
3254;BME280;1639;42.804;23.342;2023-08-07T07:36:37;71344.94;;;-148.52;48.31
3254;BME280;1639;42.804;23.342;2023-08-07T07:39:03;71322.19;;;-148.52;49.65
3254;BME280;1639;42.804;23.342;2023-08-07T07:41:28;71316.00;;;-148.52;47.57
3254;BME280;1639;42.804;23.342;2023-08-07T07:43:53;71284.97;;;-148.52;46.12
3254;BME280;1639;42.804;23.342;2023-08-07T07:46:19;71270.50;;;-148.52;45.63
3254;BME280;1639;42.804;23.342;2023-08-07T07:48:44;71289.13;;;-148.52;45.65
3254;BME280;1639;42.804;23.342;2023-08-07T07:51:10;71253.97;;;-148.52;44.92
3254;BME280;1639;42.804;23.342;2023-08-07T07:53:35;71231.22;;;-148.52;44.89
3254;BME280;1639;42.804;23.342;2023-08-07T07:56:01;71208.50;;;-148.52;45.18
3254;BME280;1639;42.804;23.342;2023-08-07T07:58:26;71198.16;;;-148.52;45.96
3254;BME280;1639;42.804;23.342;2023-08-07T08:00:51;71177.50;;;-148.52;44.17
3254;BME280;1639;42.804;23.342;2023-08-07T08:03:19;71156.81;;;-148.52;45.13
3254;BME280;1639;42.804;23.342;2023-08-07T08:05:48;71136.13;;;-148.52;43.93
3254;BME280;1639;42.804;23.342;2023-08-07T08:08:14;71096.88;;;-148.52;44.36
3254;BME280;1639;42.804;23.342;2023-08-07T08:10:39;71082.41;;;-148.52;43.68
3254;BME280;1639;42.804;23.342;2023-08-07T08:13:05;71101.00;;;-148.52;43.85
3254;BME280;1639;42.804;23.342;2023-08-07T08:15:30;71074.13;;;-148.52;42.01
3254;BME280;1639;42.804;23.342;2023-08-07T08:17:55;71098.94;;;-148.52;43.82
3254;BME280;1639;42.804;23.342;2023-08-07T08:20:21;71061.72;;;-148.52;42.57
3254;BME280;1639;42.804;23.342;2023-08-07T08:22:47;71036.91;;;-148.52;42.48
3254;BME280;1639;42.804;23.342;2023-08-07T08:25:13;71061.72;;;-148.52;41.66
3254;BME280;1639;42.804;23.342;2023-08-07T08:27:39;71070.00;;;-148.52;42.78
3254;BME280;1639;42.804;23.342;2023-08-07T08:30:05;71061.72;;;-148.52;41.61
3254;BME280;1639;42.804;23.342;2023-08-07T08:32:30;71036.91;;;-148.52;41.42
3254;BME280;1639;42.804;23.342;2023-08-07T08:34:56;71030.72;;;-148.52;41.93
3254;BME280;1639;42.804;23.342;2023-08-07T08:37:21;71016.25;;;-148.52;39.83
3254;BME280;1639;42.804;23.342;2023-08-07T08:39:47;70991.44;;;-148.52;39.86
3254;BME280;1639;42.804;23.342;2023-08-07T08:42:12;70991.44;;;-148.52;40.18
3254;BME280;1639;42.804;23.342;2023-08-07T08:44:39;70995.56;;;-148.52;40.14
3254;BME280;1639;42.804;23.342;2023-08-07T08:47:06;70983.16;;;-148.52;40.73
3254;BME280;1639;42.804;23.342;2023-08-07T08:50:04;70962.50;;;-148.52;38.99
3254;BME280;1639;42.804;23.342;2023-08-07T08:52:28;71010.03;;;-148.52;40.78
3254;BME280;1639;42.804;23.342;2023-08-07T08:54:55;70985.22;;;-148.52;38.91
3254;BME280;1639;42.804;23.342;2023-08-07T08:57:22;70952.16;;;-148.52;38.27
3254;BME280;1639;42.804;23.342;2023-08-07T08:59:48;70960.44;;;-148.52;39.07
3254;BME280;1639;42.804;23.342;2023-08-07T09:02:15;70945.97;;;-148.52;38.40
3254;BME280;1639;42.804;23.342;2023-08-07T09:04:40;70912.88;;;-148.52;37.77
3254;BME280;1639;42.804;23.342;2023-08-07T09:07:07;70896.34;;;-148.52;39.35
3254;BME280;1639;42.804;23.342;2023-08-07T09:09:33;70888.06;;;-148.52;38.16
3254;BME280;1639;42.804;23.342;2023-08-07T09:12:00;70869.47;;;-148.52;37.82
3254;BME280;1639;42.804;23.342;2023-08-07T09:14:29;70842.59;;;-148.52;36.93
3254;BME280;1639;42.804;23.342;2023-08-07T09:16:58;70840.53;;;-148.52;37.07
3254;BME280;1639;42.804;23.342;2023-08-07T09:19:25;70826.06;;;-148.52;35.98
3254;BME280;1639;42.804;23.342;2023-08-07T09:21:51;70815.72;;;-148.52;36.97
3254;BME280;1639;42.804;23.342;2023-08-07T09:24:16;70784.72;;;-148.52;36.28
3254;BME280;1639;42.804;23.342;2023-08-07T09:26:44;70772.31;;;-148.52;35.08
3254;BME280;1639;42.804;23.342;2023-08-07T09:29:09;70745.44;;;-148.52;35.76
3254;BME280;1639;42.804;23.342;2023-08-07T09:31:36;70749.59;;;-148.52;34.79
3254;BME280;1639;42.804;23.342;2023-08-07T09:34:03;70733.03;;;-148.52;34.69
3254;BME280;1639;42.804;23.342;2023-08-07T09:36:33;70726.84;;;-148.52;36.58
3254;BME280;1639;42.804;23.342;2023-08-07T09:39:03;70716.50;;;-148.52;34.56
3254;BME280;1639;42.804;23.342;2023-08-07T09:41:30;70685.50;;;-148.52;35.07
3254;BME280;1639;42.804;23.342;2023-08-07T09:43:56;70693.78;;;-148.52;33.60
3254;BME280;1639;42.804;23.342;2023-08-07T09:46:22;70722.72;;;-148.52;34.41
3254;BME280;1639;42.804;23.342;2023-08-07T09:48:47;70730.97;;;-148.52;35.56
3254;BME280;1639;42.804;23.342;2023-08-07T09:51:13;70751.66;;;-148.52;35.53
3254;BME280;1639;42.804;23.342;2023-08-07T09:53:38;70762.00;;;-148.52;34.16
3254;BME280;1639;42.804;23.342;2023-08-07T09:56:04;70704.09;;;-148.52;33.05
3254;BME280;1639;42.804;23.342;2023-08-07T09:58:29;70683.44;;;-148.52;32.64
3254;BME280;1639;42.804;23.342;2023-08-07T10:00:55;70689.63;;;-148.52;33.01
3254;BME280;1639;42.804;23.342;2023-08-07T10:03:25;70675.16;;;-148.52;32.56
3254;BME280;1639;42.804;23.342;2023-08-07T10:05:51;70644.16;;;-148.52;31.96
3254;BME280;1639;42.804;23.342;2023-08-07T10:08:17;70642.09;;;-148.52;32.47
3254;BME280;1639;42.804;23.342;2023-08-07T10:10:43;70635.91;;;-148.52;31.78
3254;BME280;1639;42.804;23.342;2023-08-07T10:13:09;70673.09;;;-148.52;31.61
3254;BME280;1639;42.804;23.342;2023-08-07T10:15:37;70683.44;;;-148.52;32.36
3254;BME280;1639;42.804;23.342;2023-08-07T10:18:03;70673.09;;;-148.52;31.67
3254;BME280;1639;42.804;23.342;2023-08-07T10:20:30;70677.25;;;-148.52;32.08
3254;BME280;1639;42.804;23.342;2023-08-07T10:23:07;70668.97;;;-148.52;31.22
3254;BME280;1639;42.804;23.342;2023-08-07T10:25:35;70677.25;;;-148.52;30.60
3254;BME280;1639;42.804;23.342;2023-08-07T10:28:01;70673.09;;;-148.52;30.58
3254;BME280;1639;42.804;23.342;2023-08-07T10:30:29;70687.56;;;-148.52;31.29
3254;BME280;1639;42.804;23.342;2023-08-07T10:32:57;70673.09;;;-148.52;30.51
3254;BME280;1639;42.804;23.342;2023-08-07T10:37:51;70654.50;;;-148.52;30.12
3254;BME280;1639;42.804;23.342;2023-08-07T10:40:18;70631.75;;;-148.52;29.87
3254;BME280;1639;42.804;23.342;2023-08-07T10:43:00;70652.44;;;-148.52;30.56
3254;BME280;1639;42.804;23.342;2023-08-07T10:45:36;70644.16;;;-148.52;30.21
3254;BME280;1639;42.804;23.342;2023-08-07T10:48:13;70621.44;;;-148.52;29.78
3254;BME280;1639;42.804;23.342;2023-08-07T10:53:20;70594.56;;;-148.52;29.05
3254;BME280;1639;42.804;23.342;2023-08-07T10:55:47;70578.03;;;-148.52;28.76
3254;BME280;1639;42.804;23.342;2023-08-07T11:03:57;70584.22;;;-148.52;29.50
3254;BME280;1639;42.804;23.342;2023-08-07T11:06:28;70619.38;;;-148.52;29.45
3254;BME280;1639;42.804;23.342;2023-08-07T11:08:56;70596.63;;;-148.52;30.47
3254;BME280;1639;42.804;23.342;2023-08-07T11:11:22;70615.22;;;-148.52;29.43
3254;BME280;1639;42.804;23.342;2023-08-07T11:13:47;70611.09;;;-148.52;29.29
3254;BME280;1639;42.804;23.342;2023-08-07T11:16:13;70578.03;;;-148.52;30.46
3254;BME280;1639;42.804;23.342;2023-08-07T11:18:38;70528.41;;;-148.52;30.39
3254;BME280;1639;42.804;23.342;2023-08-07T11:21:11;70499.47;;;-148.52;30.71
3254;BME280;1639;42.804;23.342;2023-08-07T11:23:37;70536.69;;;-148.52;29.69
3254;BME280;1639;42.804;23.342;2023-08-07T11:26:03;70615.22;;;-148.52;30.35
3254;BME280;1639;42.804;23.342;2023-08-07T11:28:28;70637.97;;;-148.52;32.89
3254;BME280;1639;42.804;23.342;2023-08-07T11:30:54;70586.28;;;-148.52;32.14
3254;BME280;1639;42.804;23.342;2023-08-07T11:33:24;70582.16;;;-148.52;31.76
3254;BME280;1639;42.804;23.342;2023-08-07T11:35:50;70586.28;;;-148.52;31.87
3254;BME280;1639;42.804;23.342;2023-08-07T11:38:41;70569.75;;;-148.52;31.75
3254;BME280;1639;42.804;23.342;2023-08-07T11:41:11;70532.56;;;-148.52;32.48
3254;BME280;1639;42.804;23.342;2023-08-07T11:43:38;70516.00;;;-148.52;32.41
3254;BME280;1639;42.804;23.342;2023-08-07T11:46:05;70482.94;;;-148.52;30.55
3254;BME280;1639;42.804;23.342;2023-08-07T11:48:33;70513.94;;;-148.52;30.10
3254;BME280;1639;42.804;23.342;2023-08-07T11:50:59;70578.03;;;-148.52;30.27
3254;BME280;1639;42.804;23.342;2023-08-07T11:53:26;70627.63;;;-148.52;30.81
3254;BME280;1639;42.804;23.342;2023-08-07T11:58:20;70549.09;;;-148.52;31.32
3254;BME280;1639;42.804;23.342;2023-08-07T12:00:46;70582.16;;;-148.52;30.47
3254;BME280;1639;42.804;23.342;2023-08-07T12:03:25;70635.91;;;-148.52;31.24
3254;BME280;1639;42.804;23.342;2023-08-07T12:05:52;70644.16;;;-148.52;33.05
3254;BME280;1639;42.804;23.342;2023-08-07T12:08:18;70635.91;;;-148.52;32.12
3254;BME280;1639;42.804;23.342;2023-08-07T12:10:43;70609.03;;;-148.52;32.73
3254;BME280;1639;42.804;23.342;2023-08-07T12:13:09;70602.81;;;-148.52;31.64
3254;BME280;1639;42.804;23.342;2023-08-07T12:15:37;70604.91;;;-148.52;32.09
3254;BME280;1639;42.804;23.342;2023-08-07T12:18:03;70594.56;;;-148.52;31.23
3254;BME280;1639;42.804;23.342;2023-08-07T12:20:28;70594.56;;;-148.52;31.64
3254;BME280;1639;42.804;23.342;2023-08-07T12:22:54;70615.22;;;-148.52;32.08
3254;BME280;1639;42.804;23.342;2023-08-07T12:25:20;70640.03;;;-148.52;33.22
3254;BME280;1639;42.804;23.342;2023-08-07T12:27:45;70658.63;;;-148.52;33.50
3254;BME280;1639;42.804;23.342;2023-08-07T12:30:13;70660.69;;;-148.52;32.82
3254;BME280;1639;42.804;23.342;2023-08-07T12:32:38;70662.78;;;-148.52;33.13
3254;BME280;1639;42.804;23.342;2023-08-07T12:35:04;70689.63;;;-148.52;34.32
3254;BME280;1639;42.804;23.342;2023-08-07T12:37:33;70685.50;;;-148.52;35.17
3254;BME280;1639;42.804;23.342;2023-08-07T12:39:59;70706.19;;;-148.52;34.34
3254;BME280;1639;42.804;23.342;2023-08-07T12:42:24;70702.03;;;-148.52;34.76
3254;BME280;1639;42.804;23.342;2023-08-07T12:44:50;70737.19;;;-148.52;34.82
3254;BME280;1639;42.804;23.342;2023-08-07T12:47:15;70739.25;;;-148.52;35.49
3254;BME280;1639;42.804;23.342;2023-08-07T12:49:40;70741.31;;;-148.52;35.80
3254;BME280;1639;42.804;23.342;2023-08-07T12:52:06;70741.31;;;-148.52;34.98
3254;BME280;1639;42.804;23.342;2023-08-07T12:54:32;70751.66;;;-148.52;35.83
3254;BME280;1639;42.804;23.342;2023-08-07T12:56:57;70759.91;;;-148.52;35.44
3254;BME280;1639;42.804;23.342;2023-08-07T12:59:23;70757.84;;;-148.52;36.43
3254;BME280;1639;42.804;23.342;2023-08-07T13:01:48;70747.50;;;-148.52;36.90